Yellow Springs, OH (45387)

3:46 PM EDT on September 28, 2016 (GMT -0400)
Yellow Springs | | Change Station

Elev 988 ft 39.79 °N, 83.88 °W | Updated 7 seconds ago

Heavy Rain
Heavy Rain Mist
57.2 °F
Feels Like 57.2 °F
N
0.9
Wind Variable Wind from NNW
Gusts 2.5 mph

Today
High -- | Low -- °F
--% Chance of Precip.
Yesterday
High -- | Low -- °F
Precip. -- in
Pressure 29.88 in
Visibility 4.0 miles
Clouds Few 600 ft
Mostly Cloudy 2400 ft
Overcast 4700 ft
Dew Point 57 °F
Humidity 99%
Rainfall 1.41 in
Snow Depth Not available.
7:29 AM 7:22 PM
Waning Crescent, 5% visible
SPECI KSGH 281919Z AUTO 03006KT 4SM +RA BR FEW006 BKN024 OVC047 13/13 A2988 RMK AO2 P0018
Pressure 29.88 in
Visibility 4.0 miles
Clouds Few 600 ft
Mostly Cloudy 2400 ft
Overcast 4700 ft
Dew Point 57 °F
Humidity 99%
Rainfall 1.41 in
Snow Depth Not available.
7:29 AM 7:22 PM
Waning Crescent, 5% visible
SPECI KSGH 281919Z AUTO 03006KT 4SM +RA BR FEW006 BKN024 OVC047 13/13 A2988 RMK AO2 P0018

10-Day Weather Forecast

Almanac

Astronomy

Sep. 28, 2016 Rise Set
Actual Time
Civil Twilight
Nautical Twilight
Astronomical Twilight
Moon
Length of Visible Light
Length of Day
Tomorrow will be .
, % of the Moon is Illuminated

Today's Extremes

State Highs State Lows

Community

WunderPhotos

Upload Photos

1,942,311 photos uploaded!

WunderBlog® & News

Nearby

Air Quality

  Air Quality AQ Index Pollutant
Not available.

Snow Depth

Station Depth Elevation

Earthquake Activity

City Distance Mag. Time & Date
Minimum magnitude displayed is 2.5.

Coastal Water Temperatures

Place Temperature

Stations

Nearby Weather Stations

Station Location Temp. Windchill Dew Point Humidity Wind Precip. Elev Updated Type
                   

Watches & Warnings

There are currently no watches in effect.